Bylas, Arizona
Current Conditions -  °F | °C
As of 2:51 PM on Friday 28 Nov 2014 (Local Time) from KSAD Reporting Station
Clear Clear  
Wind Chill: 72°   Ceiling: Unl
Heat Index: 72°   Visibility: 10mi
Dew Point: 21°   Wind: 6mph
Humidity: 15%   Direction: NA
Pressure: 30.03"   Gusts: NA
Location:  33.14°N, 110.13°W
Report Text: KSAD 282151Z AUTO VRB05KT 10SM CLR 22/M06 A3003 RMK AO2 SLP139 T02221061
Loading
Personal Weather Stations






























Interactive Weather Map New forecast layout! Learn more

10-Day Weather Forecast

Advertisements
Track Severe Weather on mobile